Terminal Aerodrome Forecast
Issued by NWS

Home | Current Version | Previous Version | Text Only | Print | Product List | Glossary On
Versions: 1 2 3 4 5 6 7 8 9 10 11 12 13 14 15 16 17 18
000
FTUS45 KABQ 222344 RRA
TAFAEG
TAF
KAEG 222344Z 2300/2324 17015G25KT P6SM SCT090
     FM230200 20010KT P6SM FEW090
     FM230600 27006KT P6SM SKC
     FM231800 24010KT P6SM SCT100=

USA.gov is the U.S. government's official web portal to all federal, state and local government web resources and services.